createdAt,value
2017-08-31T00:01:23.468Z,55.87
2017-08-31T00:03:51.705Z,55.86
2017-08-31T00:06:19.242Z,56.25
2017-08-31T00:08:46.793Z,56.43
2017-08-31T00:11:14.359Z,56.04
2017-08-31T00:13:41.937Z,56.42
2017-08-31T00:16:09.516Z,56.27
2017-08-31T00:18:37.029Z,56.51
2017-08-31T00:21:04.542Z,56.23
2017-08-31T00:23:32.082Z,56.46
2017-08-31T00:25:59.619Z,56.41
2017-08-31T00:28:27.170Z,56.36
2017-08-31T00:30:54.776Z,56.55
2017-08-31T00:33:22.390Z,56.57
2017-08-31T00:35:50.202Z,56.54
2017-08-31T00:38:17.803Z,56.43
2017-08-31T00:40:45.343Z,56.21
2017-08-31T00:43:12.911Z,55.93
2017-08-31T00:45:40.511Z,55.90
2017-08-31T00:48:08.041Z,56.22
2017-08-31T00:50:35.686Z,56.26
2017-08-31T00:53:03.268Z,56.19
2017-08-31T00:55:31.015Z,56.22
2017-08-31T00:57:58.549Z,56.23
2017-08-31T01:00:26.215Z,55.95
2017-08-31T01:02:53.952Z,56.33
2017-08-31T01:05:21.570Z,56.88
2017-08-31T01:07:49.143Z,57.33
2017-08-31T01:10:16.929Z,56.97
2017-08-31T01:12:44.672Z,56.89
2017-08-31T01:15:12.461Z,57.24
2017-08-31T01:17:40.254Z,57.11
2017-08-31T01:20:07.815Z,57.32
2017-08-31T01:22:35.452Z,57.21
2017-08-31T01:25:03.009Z,57.02
2017-08-31T01:27:30.791Z,57.27
2017-08-31T01:29:58.388Z,57.42
2017-08-31T01:32:26.004Z,57.58
2017-08-31T01:34:53.601Z,57.40
2017-08-31T01:37:21.415Z,57.31
2017-08-31T01:39:49.069Z,57.24
2017-08-31T01:42:16.941Z,57.51
2017-08-31T01:44:44.565Z,57.25
2017-08-31T01:47:12.163Z,57.28
2017-08-31T01:49:39.705Z,57.27
2017-08-31T01:52:07.500Z,57.32
2017-08-31T01:54:35.096Z,57.34
2017-08-31T01:57:02.650Z,57.17
2017-08-31T01:59:30.200Z,57.16
2017-08-31T02:01:58.387Z,57.24
2017-08-31T02:04:26.135Z,57.58
2017-08-31T02:06:53.673Z,57.42
2017-08-31T02:09:21.216Z,57.26
2017-08-31T02:11:48.763Z,57.71
2017-08-31T02:14:16.310Z,57.65
2017-08-31T02:16:43.884Z,57.55
2017-08-31T02:19:11.410Z,57.45
2017-08-31T02:21:39.000Z,57.43
2017-08-31T02:24:06.579Z,57.60
2017-08-31T02:26:34.108Z,57.57
2017-08-31T02:29:01.646Z,57.92
2017-08-31T02:31:29.337Z,57.82
2017-08-31T02:33:57.085Z,57.90
2017-08-31T02:36:24.681Z,58.15
2017-08-31T02:38:52.268Z,58.68
2017-08-31T02:41:20.033Z,58.84
2017-08-31T02:43:47.776Z,58.80
2017-08-31T02:46:15.370Z,58.93
2017-08-31T02:48:42.894Z,59.00
2017-08-31T02:51:10.422Z,59.10
2017-08-31T02:53:37.996Z,58.98
2017-08-31T02:56:05.512Z,58.94
2017-08-31T02:58:33.262Z,59.15
2017-08-31T03:01:00.867Z,59.32
2017-08-31T03:03:29.085Z,59.31
2017-08-31T03:05:56.817Z,59.38
2017-08-31T03:08:24.455Z,59.50
2017-08-31T03:10:52.002Z,59.13
2017-08-31T03:13:19.614Z,58.76
2017-08-31T03:15:47.191Z,58.44
2017-08-31T03:18:14.765Z,58.73
2017-08-31T03:20:42.508Z,58.60
2017-08-31T03:23:10.059Z,58.34
2017-08-31T03:25:38.404Z,58.16
2017-08-31T03:28:06.129Z,58.22
2017-08-31T03:30:33.734Z,58.12
2017-08-31T03:33:01.265Z,58.26
2017-08-31T03:35:28.821Z,58.78
2017-08-31T03:37:56.357Z,59.11
2017-08-31T03:40:23.939Z,59.24
2017-08-31T03:42:51.688Z,59.24
2017-08-31T03:45:19.291Z,59.47
2017-08-31T03:47:47.048Z,59.75
2017-08-31T03:50:14.572Z,60.15
2017-08-31T03:52:42.126Z,60.31
2017-08-31T03:55:09.668Z,60.24
2017-08-31T03:57:37.457Z,59.88
2017-08-31T04:00:07.081Z,59.73
2017-08-31T04:02:34.878Z,59.00
2017-08-31T04:05:02.447Z,59.31
2017-08-31T04:07:30.001Z,58.98
2017-08-31T04:09:57.557Z,58.98
2017-08-31T04:12:25.091Z,58.88
2017-08-31T04:14:52.687Z,59.06
2017-08-31T04:17:20.444Z,58.70
2017-08-31T04:19:48.348Z,58.67
2017-08-31T04:22:15.931Z,58.37
2017-08-31T04:24:43.496Z,58.67
2017-08-31T04:27:11.239Z,58.16
2017-08-31T04:29:39.058Z,57.94
2017-08-31T04:32:06.700Z,57.51
2017-08-31T04:34:35.287Z,57.31
2017-08-31T04:37:02.922Z,56.68
2017-08-31T04:39:30.598Z,57.12
2017-08-31T04:41:58.354Z,57.02
2017-08-31T04:44:26.019Z,56.13
2017-08-31T04:46:53.600Z,54.27
2017-08-31T04:49:21.179Z,52.74
2017-08-31T04:51:48.750Z,51.98
2017-08-31T04:54:16.331Z,51.04
2017-08-31T04:56:44.081Z,50.56
2017-08-31T04:59:11.607Z,50.44
2017-08-31T05:01:39.258Z,48.50
2017-08-31T05:04:07.016Z,48.53
2017-08-31T05:06:34.608Z,48.04
2017-08-31T05:09:02.223Z,46.12
2017-08-31T05:11:29.788Z,46.33
2017-08-31T05:13:57.322Z,46.21
2017-08-31T05:16:24.945Z,43.51
2017-08-31T05:18:52.504Z,43.92
2017-08-31T05:21:20.277Z,43.58
2017-08-31T05:23:48.070Z,43.86
2017-08-31T05:26:15.597Z,42.66
2017-08-31T05:28:43.409Z,44.18
2017-08-31T05:31:10.977Z,43.96
2017-08-31T05:33:38.560Z,42.20
2017-08-31T05:36:06.087Z,43.56
2017-08-31T05:38:33.708Z,43.71
2017-08-31T05:41:01.251Z,42.97
2017-08-31T05:43:28.830Z,42.39
2017-08-31T05:45:56.436Z,42.13
2017-08-31T05:48:24.009Z,39.66
2017-08-31T05:50:51.547Z,40.80
2017-08-31T05:53:19.176Z,39.48
2017-08-31T05:55:46.831Z,40.48
2017-08-31T05:58:14.368Z,39.81
2017-08-31T06:00:42.029Z,38.64
2017-08-31T06:03:09.597Z,37.59
2017-08-31T06:05:37.454Z,38.18
2017-08-31T06:08:05.090Z,37.54
2017-08-31T06:10:32.975Z,37.79
2017-08-31T06:13:00.517Z,37.69
2017-08-31T06:15:28.135Z,37.82
2017-08-31T06:17:55.714Z,37.50
2017-08-31T06:20:23.518Z,37.21
2017-08-31T06:22:51.128Z,37.19
2017-08-31T06:25:18.698Z,37.02
2017-08-31T06:27:46.265Z,36.39
2017-08-31T06:30:13.855Z,36.60
2017-08-31T06:32:41.396Z,36.65
2017-08-31T06:35:09.480Z,35.98
2017-08-31T06:37:37.146Z,35.27
2017-08-31T06:40:04.719Z,34.06
2017-08-31T06:42:33.731Z,35.21
2017-08-31T06:45:02.389Z,34.85
2017-08-31T06:47:29.972Z,35.18
2017-08-31T06:49:57.575Z,33.80
2017-08-31T06:52:25.154Z,34.37
2017-08-31T06:54:52.731Z,34.11
2017-08-31T06:57:21.088Z,32.20
2017-08-31T06:59:48.677Z,33.33
2017-08-31T07:02:16.276Z,32.23
2017-08-31T07:04:44.347Z,32.00
2017-08-31T07:07:12.001Z,32.20
2017-08-31T07:09:39.586Z,34.15
2017-08-31T07:12:07.152Z,34.02
2017-08-31T07:14:34.748Z,34.18
2017-08-31T07:17:02.332Z,33.87
2017-08-31T07:19:29.917Z,34.43
2017-08-31T07:21:57.568Z,33.86
2017-08-31T07:24:25.158Z,33.47
2017-08-31T07:26:52.747Z,34.95
2017-08-31T07:29:20.298Z,35.68
2017-08-31T07:31:48.731Z,34.53
2017-08-31T07:34:16.479Z,33.61
2017-08-31T07:36:44.108Z,33.21
2017-08-31T07:39:11.807Z,33.00
2017-08-31T07:41:39.467Z,30.97
2017-08-31T07:44:07.030Z,31.35
2017-08-31T07:46:34.615Z,32.04
2017-08-31T07:49:03.026Z,31.75
2017-08-31T07:51:30.610Z,33.15
2017-08-31T07:53:58.193Z,32.39
2017-08-31T07:56:25.822Z,31.69
2017-08-31T07:59:14.685Z,30.80
2017-08-31T08:01:42.353Z,29.92
2017-08-31T08:04:09.922Z,31.13
2017-08-31T08:06:41.060Z,30.93
2017-08-31T08:09:08.727Z,31.02
2017-08-31T08:11:46.377Z,31.50
2017-08-31T08:14:13.917Z,31.33
2017-08-31T08:16:42.311Z,31.61
2017-08-31T08:19:10.795Z,31.80
2017-08-31T08:21:38.657Z,31.13
2017-08-31T08:24:06.300Z,30.70
2017-08-31T08:26:34.118Z,29.94
2017-08-31T08:29:01.713Z,29.04
2017-08-31T08:31:29.280Z,30.24
2017-08-31T08:33:56.884Z,29.73
2017-08-31T08:36:24.479Z,30.18
2017-08-31T08:38:52.119Z,29.15
2017-08-31T08:41:19.929Z,29.08
2017-08-31T08:43:47.521Z,29.27
2017-08-31T08:46:15.151Z,29.04
2017-08-31T08:48:42.680Z,29.44
2017-08-31T08:51:10.508Z,30.99
2017-08-31T08:53:38.217Z,30.08
2017-08-31T08:56:05.765Z,30.74
2017-08-31T08:58:33.580Z,28.71
2017-08-31T09:01:01.174Z,29.81
2017-08-31T09:03:28.725Z,29.28
2017-08-31T09:05:56.281Z,29.36
2017-08-31T09:08:23.945Z,30.16
2017-08-31T09:10:51.530Z,29.88
2017-08-31T09:13:19.097Z,29.76
2017-08-31T09:15:46.879Z,28.83
2017-08-31T09:18:14.633Z,28.25
2017-08-31T09:20:42.178Z,27.47
2017-08-31T09:23:09.753Z,26.63
2017-08-31T09:25:37.296Z,27.55
2017-08-31T09:28:04.875Z,26.87
2017-08-31T09:30:32.491Z,26.54
2017-08-31T09:33:00.068Z,25.97
2017-08-31T09:35:27.731Z,25.45
2017-08-31T09:37:55.368Z,24.72
2017-08-31T09:40:23.367Z,25.08
2017-08-31T09:42:51.153Z,25.08
2017-08-31T09:45:18.740Z,25.40
2017-08-31T09:47:46.322Z,25.38
2017-08-31T09:50:13.881Z,26.13
2017-08-31T09:52:41.461Z,25.54
2017-08-31T09:55:09.007Z,24.87
2017-08-31T09:57:37.161Z,24.73
2017-08-31T10:00:06.409Z,24.57
2017-08-31T10:02:33.987Z,25.54
2017-08-31T10:05:01.519Z,25.40
2017-08-31T10:07:29.101Z,25.39
2017-08-31T10:09:56.670Z,26.07
2017-08-31T10:12:24.203Z,25.28
2017-08-31T10:14:52.562Z,25.79
2017-08-31T10:17:20.445Z,25.56
2017-08-31T10:19:48.194Z,27.02
2017-08-31T10:22:15.817Z,26.56
2017-08-31T10:24:43.634Z,25.83
2017-08-31T10:27:11.392Z,26.10
2017-08-31T10:29:39.037Z,26.64
2017-08-31T10:32:06.654Z,25.42
2017-08-31T10:34:34.224Z,25.21
2017-08-31T10:37:02.774Z,25.37
2017-08-31T10:39:30.399Z,24.84
2017-08-31T10:41:57.947Z,25.33
2017-08-31T10:44:25.705Z,25.50
2017-08-31T10:46:53.261Z,24.46
2017-08-31T10:49:20.927Z,25.06
2017-08-31T10:51:48.791Z,24.91
2017-08-31T10:54:16.444Z,25.10
2017-08-31T10:56:44.052Z,24.61
2017-08-31T10:59:11.683Z,24.71
2017-08-31T11:01:39.324Z,24.44
2017-08-31T11:04:07.197Z,24.26
2017-08-31T11:06:34.777Z,23.18
2017-08-31T11:09:02.393Z,23.31
2017-08-31T11:11:29.951Z,24.59
2017-08-31T11:13:57.537Z,24.82
2017-08-31T11:16:26.874Z,24.21
2017-08-31T11:18:54.445Z,23.98
2017-08-31T11:21:24.721Z,23.13
2017-08-31T11:23:52.296Z,22.58
2017-08-31T11:26:19.827Z,21.92
2017-08-31T11:28:47.413Z,20.50
2017-08-31T11:31:14.961Z,21.42
2017-08-31T11:33:42.494Z,19.78
2017-08-31T11:36:10.457Z,20.46
2017-08-31T11:38:37.927Z,21.52
2017-08-31T11:41:05.429Z,21.85
2017-08-31T11:43:33.194Z,21.70
2017-08-31T11:46:01.013Z,20.89
2017-08-31T11:48:28.746Z,21.21
2017-08-31T11:50:56.268Z,21.51
2017-08-31T11:53:23.849Z,21.48
2017-08-31T11:55:51.407Z,21.40
2017-08-31T11:58:19.160Z,21.02
2017-08-31T12:00:47.663Z,20.92
2017-08-31T12:03:15.435Z,21.58
2017-08-31T12:05:43.217Z,21.19
2017-08-31T12:08:10.829Z,21.25
2017-08-31T12:13:20.312Z,21.29
2017-08-31T12:15:48.096Z,21.29
2017-08-31T12:18:15.868Z,21.04
2017-08-31T12:20:43.441Z,20.59
2017-08-31T12:23:11.023Z,20.16
2017-08-31T12:25:38.608Z,20.13
2017-08-31T12:28:06.189Z,21.03
2017-08-31T12:30:34.508Z,20.58
2017-08-31T12:33:02.077Z,21.01
2017-08-31T12:35:29.667Z,20.76
2017-08-31T12:37:57.238Z,20.76
2017-08-31T12:40:25.016Z,19.99
2017-08-31T12:42:52.618Z,19.68
2017-08-31T12:45:20.204Z,19.79
2017-08-31T12:47:48.141Z,20.63
2017-08-31T12:50:15.727Z,20.43
2017-08-31T12:52:43.287Z,19.87
2017-08-31T12:55:10.895Z,20.30
2017-08-31T12:57:38.653Z,20.03
2017-08-31T13:00:07.681Z,19.77
2017-08-31T13:02:35.282Z,20.26
2017-08-31T13:05:02.873Z,18.43
2017-08-31T13:07:30.452Z,18.52
2017-08-31T13:09:59.027Z,17.20
2017-08-31T13:12:27.238Z,17.15
2017-08-31T13:14:55.551Z,15.75
2017-08-31T13:17:23.108Z,15.74
2017-08-31T13:19:50.635Z,16.64
2017-08-31T13:22:18.513Z,17.93
2017-08-31T13:24:46.251Z,18.27
2017-08-31T13:27:15.397Z,16.57
2017-08-31T13:29:45.231Z,16.71
2017-08-31T13:32:12.860Z,17.94
2017-08-31T13:34:40.733Z,16.69
2017-08-31T13:37:09.243Z,17.56
2017-08-31T13:39:36.892Z,17.90
2017-08-31T13:42:04.414Z,17.72
2017-08-31T13:44:31.961Z,17.83
2017-08-31T13:46:59.510Z,17.23
2017-08-31T13:49:28.085Z,16.64
2017-08-31T13:51:57.375Z,17.32
2017-08-31T13:54:25.012Z,16.39
2017-08-31T13:56:55.624Z,16.48
2017-08-31T13:59:23.255Z,16.28
2017-08-31T14:01:52.286Z,16.21
2017-08-31T14:04:20.083Z,18.64
2017-08-31T14:06:47.764Z,18.15
2017-08-31T14:09:15.436Z,17.40
2017-08-31T14:11:44.063Z,17.76
2017-08-31T14:14:12.821Z,18.35
2017-08-31T14:16:40.622Z,17.42
2017-08-31T14:19:09.176Z,15.47
2017-08-31T14:21:36.767Z,15.97
2017-08-31T14:24:04.351Z,17.21
2017-08-31T14:26:32.943Z,16.80
2017-08-31T14:29:00.712Z,17.14
2017-08-31T14:31:28.301Z,17.45
2017-08-31T14:33:56.674Z,18.06
2017-08-31T14:36:24.444Z,17.71
2017-08-31T14:38:52.675Z,16.74
2017-08-31T14:41:20.209Z,17.42
2017-08-31T14:43:48.686Z,16.74
2017-08-31T14:46:16.256Z,18.57
2017-08-31T14:48:43.900Z,17.84
2017-08-31T14:51:11.422Z,18.12
2017-08-31T14:53:39.153Z,18.28
2017-08-31T14:56:06.992Z,17.83
2017-08-31T14:58:34.596Z,19.65
2017-08-31T15:01:02.341Z,20.19
2017-08-31T15:03:29.934Z,18.87
2017-08-31T15:05:58.560Z,19.21
2017-08-31T15:08:26.204Z,18.03
2017-08-31T15:10:53.769Z,18.68
2017-08-31T15:13:21.370Z,18.65
2017-08-31T15:15:48.953Z,18.92
2017-08-31T15:18:16.594Z,19.08
2017-08-31T15:20:44.366Z,19.76
2017-08-31T15:23:12.674Z,19.27
2017-08-31T15:25:40.814Z,19.35
2017-08-31T15:28:08.559Z,19.19
2017-08-31T15:30:36.625Z,19.50
2017-08-31T15:33:04.232Z,19.58
2017-08-31T15:35:31.828Z,19.82
2017-08-31T15:37:59.463Z,19.60
2017-08-31T15:40:27.095Z,19.64
2017-08-31T15:42:54.628Z,19.86
2017-08-31T15:45:22.529Z,20.08
2017-08-31T15:47:50.077Z,19.66
2017-08-31T15:50:18.446Z,19.91
2017-08-31T15:52:46.022Z,20.31
2017-08-31T15:55:13.595Z,20.27
2017-08-31T15:57:41.193Z,20.39
2017-08-31T16:00:10.223Z,20.41
2017-08-31T16:02:37.752Z,20.49
2017-08-31T16:05:05.528Z,20.99
2017-08-31T16:07:33.980Z,21.44
2017-08-31T16:10:01.528Z,21.44
2017-08-31T16:12:29.808Z,21.19
2017-08-31T16:14:57.432Z,20.78
2017-08-31T16:17:25.197Z,20.77
2017-08-31T16:19:52.856Z,20.65
2017-08-31T16:22:20.449Z,20.61
2017-08-31T16:24:48.211Z,20.85
2017-08-31T16:27:15.967Z,23.79
2017-08-31T16:29:43.764Z,24.31
2017-08-31T16:32:11.348Z,25.01
2017-08-31T16:34:40.616Z,25.37
2017-08-31T16:37:08.181Z,25.36
2017-08-31T16:39:35.945Z,25.70
2017-08-31T16:42:03.483Z,25.70
2017-08-31T16:44:32.527Z,26.09
2017-08-31T16:47:00.317Z,25.98
2017-08-31T16:49:27.860Z,26.26
2017-08-31T16:51:55.744Z,26.56
2017-08-31T16:54:23.978Z,26.58
2017-08-31T16:56:52.559Z,26.88
2017-08-31T16:59:20.125Z,26.94
2017-08-31T17:01:48.661Z,27.21
2017-08-31T17:04:16.222Z,27.66
2017-08-31T17:06:43.741Z,27.84
2017-08-31T17:09:11.450Z,28.05
2017-08-31T17:11:39.149Z,28.13
2017-08-31T17:14:06.693Z,28.14
2017-08-31T17:16:34.650Z,28.41
2017-08-31T17:19:02.458Z,28.61
2017-08-31T17:21:30.219Z,28.60
2017-08-31T17:23:57.796Z,28.90
2017-08-31T17:26:25.389Z,28.85
2017-08-31T17:28:53.760Z,29.04
2017-08-31T17:31:21.365Z,29.07
2017-08-31T17:33:49.231Z,29.07
2017-08-31T17:36:16.773Z,29.11
2017-08-31T17:38:44.382Z,29.03
2017-08-31T17:41:11.913Z,29.08
2017-08-31T17:43:39.442Z,29.05
2017-08-31T17:46:07.048Z,29.00
2017-08-31T17:48:34.818Z,29.32
2017-08-31T17:51:02.364Z,29.63
2017-08-31T17:53:34.319Z,30.17
2017-08-31T17:56:02.072Z,30.98
2017-08-31T17:58:32.376Z,31.39
2017-08-31T18:01:00.060Z,31.46
2017-08-31T18:03:27.918Z,31.87
2017-08-31T18:05:55.659Z,31.90
2017-08-31T18:11:21.191Z,32.47
2017-08-31T18:13:59.247Z,33.00
2017-08-31T18:16:27.537Z,33.71
2017-08-31T18:18:55.085Z,33.96
2017-08-31T18:21:22.606Z,34.94
2017-08-31T18:23:50.148Z,35.84
2017-08-31T18:26:18.443Z,36.35
2017-08-31T18:28:47.401Z,36.59
2017-08-31T18:31:15.976Z,36.55
2017-08-31T18:33:46.872Z,36.55
2017-08-31T18:36:14.381Z,36.84
2017-08-31T18:38:41.994Z,37.43
2017-08-31T18:41:10.244Z,37.67
2017-08-31T18:43:38.263Z,37.77
2017-08-31T18:46:05.853Z,38.17
2017-08-31T18:48:34.908Z,38.52
2017-08-31T18:51:02.509Z,39.10
2017-08-31T18:53:30.081Z,39.31
2017-08-31T18:55:57.881Z,39.77
2017-08-31T18:58:25.433Z,39.74
2017-08-31T19:00:53.100Z,40.17
2017-08-31T19:03:20.622Z,40.65
2017-08-31T19:05:48.141Z,40.82
2017-08-31T19:08:16.680Z,41.11
2017-08-31T19:10:44.199Z,41.10
2017-08-31T19:13:11.786Z,41.31
2017-08-31T19:15:39.347Z,41.55
2017-08-31T19:18:06.865Z,41.88
2017-08-31T19:20:34.758Z,42.16
2017-08-31T19:23:02.349Z,42.09
2017-08-31T19:25:29.874Z,42.20
2017-08-31T19:27:57.409Z,42.36
2017-08-31T19:30:25.877Z,42.70
2017-08-31T19:32:53.404Z,42.63
2017-08-31T19:35:20.950Z,42.99
2017-08-31T19:37:48.520Z,43.26
2017-08-31T19:40:16.137Z,43.24
2017-08-31T19:42:43.874Z,43.05
2017-08-31T19:45:11.465Z,43.14
2017-08-31T19:47:39.107Z,43.10
2017-08-31T19:50:07.390Z,42.97
2017-08-31T19:52:34.978Z,43.06
2017-08-31T19:55:02.521Z,42.93
2017-08-31T19:57:30.094Z,43.02
2017-08-31T19:59:57.671Z,43.41
2017-08-31T20:02:25.281Z,43.36
2017-08-31T20:04:52.847Z,43.47
2017-08-31T20:07:20.410Z,43.75
2017-08-31T20:09:48.038Z,43.46
2017-08-31T20:12:15.563Z,43.72
2017-08-31T20:14:43.099Z,43.43
2017-08-31T20:17:10.691Z,43.64
2017-08-31T20:19:38.316Z,43.60
2017-08-31T20:22:05.861Z,43.56
2017-08-31T20:24:33.442Z,43.63
2017-08-31T20:27:00.995Z,44.13
2017-08-31T20:29:28.815Z,43.96
2017-08-31T20:31:56.402Z,44.05
2017-08-31T20:34:23.920Z,43.94
2017-08-31T20:36:51.445Z,44.04
2017-08-31T20:41:53.119Z,44.52
2017-08-31T20:44:20.672Z,44.70
2017-08-31T20:46:49.709Z,44.25
2017-08-31T20:49:21.851Z,44.06
2017-08-31T20:51:49.362Z,44.36
2017-08-31T20:57:54.453Z,44.00
2017-08-31T21:00:49.475Z,43.66
2017-08-31T21:03:17.213Z,43.57
2017-08-31T21:05:47.212Z,43.04
2017-08-31T21:08:14.727Z,43.15
2017-08-31T21:10:42.237Z,43.29
2017-08-31T21:13:09.781Z,43.59
2017-08-31T21:15:37.282Z,43.37
2017-08-31T21:18:04.817Z,43.56
2017-08-31T21:20:32.389Z,43.83
2017-08-31T21:22:59.904Z,43.70
2017-08-31T21:25:27.448Z,43.74
2017-08-31T21:27:55.002Z,43.83
2017-08-31T21:30:22.585Z,43.78
2017-08-31T21:32:50.110Z,44.03
2017-08-31T21:35:18.481Z,43.91
2017-08-31T21:37:46.071Z,43.80
2017-08-31T21:40:14.888Z,43.75
2017-08-31T21:42:42.429Z,43.94
2017-08-31T21:45:09.976Z,43.39
2017-08-31T21:47:37.483Z,43.74
2017-08-31T21:50:05.439Z,43.75
2017-08-31T21:52:33.102Z,43.82
2017-08-31T21:55:00.621Z,44.21
2017-08-31T21:57:28.130Z,44.12
2017-08-31T21:59:55.701Z,44.22
2017-08-31T22:02:23.248Z,44.07
2017-08-31T22:04:50.771Z,44.11
2017-08-31T22:07:18.675Z,44.11
2017-08-31T22:09:46.219Z,43.92
2017-08-31T22:12:13.747Z,43.89
2017-08-31T22:14:41.275Z,43.84
2017-08-31T22:17:08.856Z,43.50
2017-08-31T22:19:36.410Z,43.82
2017-08-31T22:22:03.979Z,43.92
2017-08-31T22:24:31.537Z,43.78
2017-08-31T22:26:59.117Z,43.58
2017-08-31T22:29:26.891Z,43.52
2017-08-31T22:31:54.785Z,43.70
2017-08-31T22:34:22.616Z,43.56
2017-08-31T22:36:50.132Z,43.52
2017-08-31T22:39:17.685Z,43.88
2017-08-31T22:41:45.214Z,43.95
2017-08-31T22:44:12.759Z,43.93
2017-08-31T22:46:40.335Z,43.72
2017-08-31T22:49:07.864Z,43.34
2017-08-31T22:51:35.387Z,43.28
2017-08-31T22:54:02.992Z,43.41
2017-08-31T22:56:42.368Z,43.45
2017-08-31T22:59:09.963Z,43.73
2017-08-31T23:01:37.538Z,44.03
2017-08-31T23:04:05.911Z,43.37
2017-08-31T23:06:33.616Z,43.27
2017-08-31T23:09:01.224Z,43.33
2017-08-31T23:11:28.745Z,43.54
2017-08-31T23:13:56.519Z,43.64
2017-08-31T23:16:24.441Z,43.79
2017-08-31T23:18:51.969Z,43.88
2017-08-31T23:21:19.496Z,44.09
2017-08-31T23:23:47.367Z,44.13
2017-08-31T23:26:15.143Z,44.37
2017-08-31T23:28:42.684Z,43.88
2017-08-31T23:31:10.248Z,44.18
2017-08-31T23:33:37.775Z,44.14
2017-08-31T23:36:05.545Z,44.31
2017-08-31T23:38:33.100Z,44.34
2017-08-31T23:41:00.614Z,44.37
2017-08-31T23:43:28.135Z,44.27
2017-08-31T23:45:56.611Z,44.08
2017-08-31T23:48:24.131Z,44.04
2017-08-31T23:50:51.888Z,43.82
2017-08-31T23:53:19.460Z,43.52
2017-08-31T23:55:47.004Z,43.97
2017-08-31T23:58:14.598Z,44.34
